Station Historical Data
Daily Summary for August 4, 2012 Units:  English    Metric   Both
« Previous Day
Next Day »
Daily Weekly Monthly Yearly Custom
  High: Low: Average:
Temperature: 89.1 °F 72.3 °F 76.4 °F
Dew Point: 81.2 °F 69.8 °F 73 °F
Humidity: 92% 65% 89%
Wind Speed: 19.0mph 0.0mph 4mph
Wind Gust: 19.0mph - -
Wind- - SSE
Pressure: 30.03 in 29.88 in -
Precipitation: 0.73 in    
Historical Graphs
 
 
Tabular Data for August 4, 2012
Time Temperature Dew Point Pressure Wind Wind Speed Wind Gust Humidity Rainfall Rate (Hourly) Conditions
00:00 77.6 °F 75.1 °F 29.90 in South 2.0 mph 4.0 mph 92% 0.00 in
00:05 77.6 °F 75.1 °F 29.90 in South 4.0 mph 4.0 mph 92% 0.00 in
00:10 77.5 °F 75.0 °F 29.90 in SSW 2.0 mph 5.0 mph 92% 0.00 in
00:15 77.4 °F 74.9 °F 29.90 in SSE 3.0 mph 6.0 mph 92% 0.00 in
00:20 77.4 °F 74.9 °F 29.90 in SSE 3.0 mph 4.0 mph 92% 0.00 in
00:25 77.3 °F 74.8 °F 29.90 in SSW 4.0 mph 5.0 mph 92% 0.00 in
00:30 77.2 °F 74.7 °F 29.90 in South 3.0 mph 4.0 mph 92% 0.00 in
00:35 77.1 °F 74.6 °F 29.90 in SSW 4.0 mph 7.0 mph 92% 0.00 in
00:40 77.0 °F 74.5 °F 29.90 in SSE 2.0 mph 7.0 mph 92% 0.00 in
00:46 77.0 °F 74.5 °F 29.90 in South 1.0 mph 5.0 mph 92% 0.00 in
00:51 76.8 °F 74.3 °F 29.90 in SSE 3.0 mph 4.0 mph 92% 0.00 in
00:56 76.7 °F 74.2 °F 29.90 in SSE 3.0 mph 5.0 mph 92% 0.00 in
01:01 76.5 °F 74.0 °F 29.90 in SSE 3.0 mph 5.0 mph 92% 0.00 in
01:06 76.3 °F 73.8 °F 29.90 in SSE 6.0 mph 8.0 mph 92% 0.00 in
01:11 76.1 °F 73.6 °F 29.90 in SSE 4.0 mph 5.0 mph 92% 0.00 in
01:16 76.0 °F 73.5 °F 29.90 in South 1.0 mph 6.0 mph 92% 0.00 in
01:21 75.8 °F 73.3 °F 29.90 in SSE 5.0 mph 5.0 mph 92% 0.00 in
01:26 75.7 °F 73.2 °F 29.89 in SSW 4.0 mph 6.0 mph 92% 0.00 in
01:31 75.6 °F 73.1 °F 29.89 in SSW 3.0 mph 5.0 mph 92% 0.00 in
01:36 75.4 °F 72.9 °F 29.89 in SSE 3.0 mph 4.0 mph 92% 0.00 in
01:41 75.2 °F 72.7 °F 29.89 in SE 4.0 mph 6.0 mph 92% 0.00 in
01:46 75.1 °F 72.6 °F 29.89 in SSE 4.0 mph 5.0 mph 92% 0.00 in
01:51 75.0 °F 72.5 °F 29.88 in SSE 2.0 mph 4.0 mph 92% 0.00 in
01:56 74.8 °F 72.3 °F 29.89 in SSW 1.0 mph 3.0 mph 92% 0.00 in
02:01 74.8 °F 72.3 °F 29.89 in South 4.0 mph 4.0 mph 92% 0.00 in
02:06 74.6 °F 72.1 °F 29.89 in South 2.0 mph 3.0 mph 92% 0.00 in
02:12 74.5 °F 72.0 °F 29.89 in SSE 2.0 mph 4.0 mph 92% 0.00 in
02:17 74.4 °F 71.9 °F 29.89 in SSE 2.0 mph 5.0 mph 92% 0.00 in
02:22 74.3 °F 71.8 °F 29.89 in SSE 2.0 mph 3.0 mph 92% 0.00 in
02:27 74.3 °F 71.8 °F 29.89 in SSW 2.0 mph 5.0 mph 92% 0.00 in
02:32 74.3 °F 71.8 °F 29.89 in South 4.0 mph 6.0 mph 92% 0.00 in
02:37 74.1 °F 71.6 °F 29.90 in SSE 4.0 mph 5.0 mph 92% 0.00 in
02:42 74.1 °F 71.6 °F 29.89 in SW 2.0 mph 4.0 mph 92% 0.00 in
02:47 74.0 °F 71.5 °F 29.89 in SSE 2.0 mph 2.0 mph 92% 0.00 in
02:52 73.9 °F 71.4 °F 29.89 in SSW 2.0 mph 2.0 mph 92% 0.00 in
02:57 73.9 °F 71.4 °F 29.89 in SE 3.0 mph 3.0 mph 92% 0.00 in
03:02 73.8 °F 71.3 °F 29.89 in SSW 2.0 mph 3.0 mph 92% 0.00 in
03:07 73.8 °F 71.3 °F 29.89 in SSE 2.0 mph 2.0 mph 92% 0.00 in
03:12 73.7 °F 71.2 °F 29.90 in SSE 1.0 mph 2.0 mph 92% 0.00 in
03:17 73.6 °F 71.1 °F 29.90 in South 1.0 mph 1.0 mph 92% 0.00 in
03:22 73.5 °F 71.0 °F 29.90 in SE 1.0 mph 2.0 mph 92% 0.00 in
03:27 73.3 °F 70.8 °F 29.90 in SE 1.0 mph 1.0 mph 92% 0.00 in
03:32 73.2 °F 70.7 °F 29.90 in Calm   2.0 mph 92% 0.00 in
03:37 73.2 °F 70.7 °F 29.90 in SSE 1.0 mph 1.0 mph 92% 0.00 in
03:42 73.1 °F 70.6 °F 29.90 in SSE 2.0 mph 2.0 mph 92% 0.00 in
03:47 73.0 °F 70.5 °F 29.91 in SSE 1.0 mph 2.0 mph 92% 0.00 in
03:52 72.9 °F 70.4 °F 29.90 in SSE 2.0 mph 2.0 mph 92% 0.00 in
03:57 72.9 °F 70.4 °F 29.91 in SE 1.0 mph 2.0 mph 92% 0.00 in
04:02 72.8 °F 70.3 °F 29.90 in SE 1.0 mph 1.0 mph 92% 0.00 in
04:07 72.7 °F 70.2 °F 29.90 in Calm     92% 0.00 in
04:12 72.7 °F 70.2 °F 29.90 in Calm     92% 0.00 in
04:17 72.7 °F 70.2 °F 29.90 in Calm     92% 0.00 in
04:22 72.6 °F 70.2 °F 29.90 in Calm   1.0 mph 92% 0.00 in
04:27 72.6 °F 70.2 °F 29.90 in South 1.0 mph 2.0 mph 92% 0.00 in
04:32 72.5 °F 70.1 °F 29.91 in SE 1.0 mph 2.0 mph 92% 0.00 in
04:38 72.6 °F 70.2 °F 29.91 in SSE 2.0 mph 3.0 mph 92% 0.00 in
04:43 72.6 °F 70.2 °F 29.91 in South 2.0 mph 4.0 mph 92% 0.00 in
04:48 72.6 °F 70.2 °F 29.91 in SSE 2.0 mph 2.0 mph 92% 0.00 in
04:53 72.6 °F 70.2 °F 29.91 in SE 2.0 mph 3.0 mph 92% 0.00 in
04:58 72.6 °F 70.2 °F 29.91 in ESE 3.0 mph 5.0 mph 92% 0.00 in
05:03 72.6 °F 70.2 °F 29.92 in SSE 3.0 mph 5.0 mph 92% 0.00 in
05:08 72.6 °F 70.2 °F 29.92 in ESE 3.0 mph 5.0 mph 92% 0.00 in
05:13 72.5 °F 70.1 °F 29.92 in SE 2.0 mph 3.0 mph 92% 0.00 in
05:18 72.5 °F 70.1 °F 29.92 in SE 3.0 mph 4.0 mph 92% 0.00 in
05:23 72.5 °F 70.1 °F 29.92 in SE 2.0 mph 3.0 mph 92% 0.00 in
05:28 72.5 °F 70.1 °F 29.92 in SE 3.0 mph 6.0 mph 92% 0.00 in
05:33 72.5 °F 70.1 °F 29.92 in SE 5.0 mph 5.0 mph 92% 0.00 in
05:38 72.5 °F 70.1 °F 29.92 in SE 5.0 mph 6.0 mph 92% 0.00 in
05:43 72.5 °F 70.1 °F 29.93 in SE 4.0 mph 6.0 mph 92% 0.00 in
05:48 72.5 °F 70.1 °F 29.93 in ESE 5.0 mph 5.0 mph 92% 0.00 in
05:53 72.6 °F 70.2 °F 29.93 in SE 4.0 mph 5.0 mph 92% 0.00 in
05:58 72.6 °F 70.2 °F 29.93 in SE 3.0 mph 6.0 mph 92% 0.00 in
06:03 72.5 °F 70.1 °F 29.94 in SE 4.0 mph 6.0 mph 92% 0.00 in
06:08 72.5 °F 70.1 °F 29.94 in SE 5.0 mph 6.0 mph 92% 0.00 in
06:13 72.5 °F 70.1 °F 29.94 in SE 4.0 mph 6.0 mph 92% 0.00 in
06:18 72.5 °F 70.1 °F 29.94 in SE 3.0 mph 5.0 mph 92% 0.00 in
06:23 72.5 °F 70.1 °F 29.94 in SE 2.0 mph 3.0 mph 92% 0.00 in
06:28 72.4 °F 69.9 °F 29.94 in ESE 3.0 mph 5.0 mph 92% 0.00 in
06:33 72.4 °F 69.9 °F 29.94 in SE 4.0 mph 5.0 mph 92% 0.00 in
06:38 72.4 °F 69.9 °F 29.94 in ESE 4.0 mph 5.0 mph 92% 0.00 in
06:43 72.3 °F 69.8 °F 29.95 in SE 5.0 mph 6.0 mph 92% 0.00 in
06:48 72.3 °F 69.8 °F 29.95 in SE 4.0 mph 5.0 mph 92% 0.00 in
06:53 72.3 °F 69.8 °F 29.95 in SSE 4.0 mph 6.0 mph 92% 0.00 in
06:58 72.4 °F 69.9 °F 29.95 in SE 4.0 mph 5.0 mph 92% 0.00 in
07:03 72.4 °F 69.9 °F 29.95 in SE 4.0 mph 7.0 mph 92% 0.00 in
07:08 72.4 °F 69.9 °F 29.95 in SE 2.0 mph 4.0 mph 92% 0.00 in
07:13 72.4 °F 69.9 °F 29.96 in ESE 4.0 mph 6.0 mph 92% 0.00 in
07:18 72.4 °F 69.9 °F 29.96 in SE 5.0 mph 6.0 mph 92% 0.00 in
07:23 72.4 °F 69.9 °F 29.96 in SE 3.0 mph 7.0 mph 92% 0.00 in
07:28 72.4 °F 69.9 °F 29.96 in SE 3.0 mph 6.0 mph 92% 0.00 in
07:33 72.5 °F 70.1 °F 29.96 in SE 3.0 mph 5.0 mph 92% 0.00 in
07:38 72.5 °F 70.1 °F 29.96 in SE 3.0 mph 4.0 mph 92% 0.00 in
07:43 72.5 °F 70.1 °F 29.96 in SE 3.0 mph 5.0 mph 92% 0.00 in
07:48 72.6 °F 70.2 °F 29.96 in SE 6.0 mph 6.0 mph 92% 0.00 in
07:53 72.6 °F 70.2 °F 29.96 in ESE 4.0 mph 5.0 mph 92% 0.00 in
07:58 72.7 °F 70.2 °F 29.97 in SE 5.0 mph 6.0 mph 92% 0.00 in
08:03 72.9 °F 70.4 °F 29.97 in SE 2.0 mph 6.0 mph 92% 0.00 in
08:08 73.0 °F 70.5 °F 29.97 in South 6.0 mph 7.0 mph 92% 0.00 in
08:13 73.2 °F 70.7 °F 29.97 in SSE 3.0 mph 6.0 mph 92% 0.00 in
08:18 73.5 °F 71.0 °F 29.97 in SSE 3.0 mph 5.0 mph 92% 0.00 in
08:23 73.7 °F 71.2 °F 29.97 in SSE 6.0 mph 7.0 mph 92% 0.00 in
08:28 74.2 °F 71.7 °F 29.97 in SE 6.0 mph 7.0 mph 92% 0.00 in
08:33 74.5 °F 72.0 °F 29.97 in South 3.0 mph 6.0 mph 92% 0.00 in
08:38 74.8 °F 72.3 °F 29.98 in South 5.0 mph 10.0 mph 92% 0.00 in
08:44 75.1 °F 72.6 °F 29.97 in SW 4.0 mph 8.0 mph 92% 0.00 in
08:49 75.3 °F 72.8 °F 29.98 in SSW 4.0 mph 8.0 mph 92% 0.00 in
08:54 75.8 °F 73.3 °F 29.98 in SE 7.0 mph 7.0 mph 92% 0.00 in
08:59 76.2 °F 73.7 °F 29.98 in SSE 5.0 mph 8.0 mph 92% 0.00 in
09:04 76.4 °F 73.9 °F 29.98 in South 7.0 mph 9.0 mph 92% 0.00 in
09:09 76.6 °F 74.1 °F 29.98 in SSE 6.0 mph 8.0 mph 92% 0.00 in
09:14 76.7 °F 73.9 °F 29.98 in SE 9.0 mph 9.0 mph 91% 0.00 in
09:19 76.7 °F 73.9 °F 29.98 in SSW 4.0 mph 9.0 mph 91% 0.00 in
09:24 77.1 °F 74.3 °F 29.98 in SE 7.0 mph 9.0 mph 91% 0.00 in
09:29 77.2 °F 74.4 °F 29.98 in SSE 6.0 mph 10.0 mph 91% 0.00 in
09:34 77.5 °F 74.7 °F 29.98 in SSE 5.0 mph 9.0 mph 91% 0.00 in
09:39 78.0 °F 74.8 °F 29.98 in SE 8.0 mph 11.0 mph 90% 0.00 in
09:44 78.2 °F 75.0 °F 29.98 in SE 7.0 mph 9.0 mph 90% 0.00 in
09:49 78.5 °F 75.0 °F 29.98 in SE 5.0 mph 11.0 mph 89% 0.00 in
09:54 78.4 °F 74.6 °F 29.98 in SSE 6.0 mph 10.0 mph 88% 0.00 in
09:59 78.6 °F 75.1 °F 29.98 in SSE 7.0 mph 9.0 mph 89% 0.00 in
10:04 78.8 °F 75.3 °F 29.98 in SSE 9.0 mph 10.0 mph 89% 0.00 in
10:09 78.9 °F 75.4 °F 29.99 in SSE 8.0 mph 11.0 mph 89% 0.00 in
10:14 79.0 °F 75.2 °F 29.99 in SE 6.0 mph 10.0 mph 88% 0.00 in
10:19 79.3 °F 74.8 °F 29.99 in South 7.0 mph 12.0 mph 86% 0.00 in
10:24 79.3 °F 74.8 °F 29.99 in SSE 8.0 mph 10.0 mph 86% 0.00 in
10:29 78.9 °F 74.7 °F 29.99 in SE 6.0 mph 11.0 mph 87% 0.00 in
10:34 78.9 °F 74.7 °F 29.99 in South 5.0 mph 7.0 mph 87% 0.00 in
10:39 79.1 °F 74.9 °F 29.99 in SSE 6.0 mph 8.0 mph 87% 0.00 in
10:44 79.2 °F 75.0 °F 29.99 in SE 9.0 mph 9.0 mph 87% 0.00 in
10:49 79.0 °F 74.8 °F 30.00 in SE 3.0 mph 9.0 mph 87% 0.00 in
10:54 79.0 °F 75.2 °F 30.00 in SE 4.0 mph 7.0 mph 88% 0.00 in
10:59 79.1 °F 74.9 °F 30.00 in SSE 4.0 mph 5.0 mph 87% 0.00 in
11:04 79.2 °F 75.0 °F 30.00 in SE 5.0 mph 8.0 mph 87% 0.00 in
11:09 79.6 °F 75.7 °F 30.00 in SE 5.0 mph 10.0 mph 88% 0.00 in
11:14 80.0 °F 75.8 °F 30.00 in SSE 7.0 mph 10.0 mph 87% 0.00 in
11:19 80.2 °F 75.6 °F 30.00 in South 6.0 mph 9.0 mph 86% 0.00 in
11:24 80.5 °F 75.9 °F 30.00 in SSE 4.0 mph 9.0 mph 86% 0.00 in
11:29 80.7 °F 75.8 °F 30.00 in South 5.0 mph 9.0 mph 85% 0.00 in
11:34 80.9 °F 76.3 °F 30.00 in SSE 6.0 mph 9.0 mph 86% 0.00 in
11:39 81.0 °F 76.1 °F 30.00 in SSE 9.0 mph 11.0 mph 85% 0.00 in
11:44 81.3 °F 76.7 °F 30.00 in SE 9.0 mph 10.0 mph 86% 0.00 in
11:49 81.6 °F 76.7 °F 30.00 in SE 6.0 mph 9.0 mph 85% 0.00 in
11:54 82.3 °F 77.3 °F 30.00 in SSW 4.0 mph 9.0 mph 85% 0.00 in
11:59 82.6 °F 77.3 °F 30.00 in SSE 9.0 mph 10.0 mph 84% 0.00 in
12:04 82.8 °F 77.5 °F 30.00 in SSW 7.0 mph 7.0 mph 84% 0.00 in
12:09 83.4 °F 78.4 °F 30.00 in South 7.0 mph 8.0 mph 85% 0.00 in
12:14 83.8 °F 77.7 °F 30.00 in SSE 5.0 mph 9.0 mph 82% 0.00 in
12:19 84.3 °F 78.9 °F 30.00 in SSE 7.0 mph 10.0 mph 84% 0.00 in
12:24 84.5 °F 78.8 °F 30.00 in SSE 5.0 mph 13.0 mph 83% 0.00 in
12:29 84.8 °F 78.3 °F 30.00 in South 4.0 mph 6.0 mph 81% 0.00 in
12:35 85.1 °F 78.2 °F 30.00 in SSE 3.0 mph 8.0 mph 80% 0.00 in
12:40 85.3 °F 79.2 °F 30.00 in SSW 4.0 mph 9.0 mph 82% 0.00 in
12:45 85.6 °F 78.3 °F 30.00 in SSE 9.0 mph 10.0 mph 79% 0.00 in
12:50 85.2 °F 77.9 °F 30.00 in South 5.0 mph 8.0 mph 79% 0.00 in
12:55 85.5 °F 79.4 °F 30.00 in SSE 6.0 mph 8.0 mph 82% 0.00 in
13:00 85.7 °F 78.8 °F 30.00 in SSE 6.0 mph 12.0 mph 80% 0.00 in
13:05 85.8 °F 78.5 °F 30.00 in SSE 11.0 mph 11.0 mph 79% 0.00 in
13:10 86.2 °F 79.3 °F 30.00 in SSE 2.0 mph 7.0 mph 80% 0.00 in
13:15 86.7 °F 79.8 °F 30.00 in SSE 4.0 mph 7.0 mph 80% 0.00 in
13:20 86.7 °F 79.0 °F 30.00 in SE 2.0 mph 6.0 mph 78% 0.00 in
13:25 86.7 °F 79.4 °F 30.00 in SE 4.0 mph 10.0 mph 79% 0.00 in
13:30 86.5 °F 78.8 °F 30.00 in SSE 3.0 mph 7.0 mph 78% 0.00 in
13:35 86.9 °F 79.2 °F 30.00 in SSW 2.0 mph 6.0 mph 78% 0.00 in
13:40 87.3 °F 79.6 °F 29.99 in South 8.0 mph 10.0 mph 78% 0.00 in
13:45 87.2 °F 79.1 °F 29.99 in South 2.0 mph 6.0 mph 77% 0.00 in
13:50 87.4 °F 79.7 °F 29.99 in SSW 3.0 mph 7.0 mph 78% 0.00 in
13:55 87.5 °F 79.4 °F 29.99 in South 5.0 mph 10.0 mph 77% 0.00 in
14:00 87.7 °F 79.6 °F 29.98 in SSW 6.0 mph 8.0 mph 77% 0.00 in
14:05 87.8 °F 79.7 °F 29.98 in SSE 2.0 mph 9.0 mph 77% 0.00 in
14:10 88.2 °F 81.2 °F 29.97 in SW 9.0 mph 10.0 mph 80% 0.00 in
14:15 87.8 °F 78.9 °F 29.97 in South 7.0 mph 9.0 mph 75% 0.00 in
14:20 88.3 °F 79.8 °F 29.97 in South 4.0 mph 11.0 mph 76% 0.00 in
14:25 88.1 °F 79.2 °F 29.97 in South 4.0 mph 7.0 mph 75% 0.00 in
14:30 87.9 °F 79.0 °F 29.96 in South 8.0 mph 12.0 mph 75% 0.00 in
14:35 88.3 °F 79.4 °F 29.95 in SSE 5.0 mph 7.0 mph 75% 0.00 in
14:40 88.8 °F 79.0 °F 29.95 in SW 4.0 mph 11.0 mph 73% 0.00 in
14:45 89.1 °F 80.1 °F 29.95 in South 7.0 mph 8.0 mph 75% 0.00 in
14:50 89.0 °F 80.1 °F 29.95 in SSE 6.0 mph 8.0 mph 75% 0.00 in
14:55 88.5 °F 79.2 °F 29.95 in ESE 4.0 mph 10.0 mph 74% 0.00 in
15:00 87.9 °F 78.6 °F 29.95 in SE 6.0 mph 9.0 mph 74% 0.00 in
15:05 87.7 °F 79.2 °F 29.96 in SSE 8.0 mph 9.0 mph 76% 0.00 in
15:10 87.9 °F 79.4 °F 29.95 in SE 4.0 mph 10.0 mph 76% 0.00 in
15:15 87.8 °F 78.5 °F 29.96 in ESE 3.0 mph 6.0 mph 74% 0.00 in
15:20 87.6 °F 79.1 °F 29.96 in West 2.0 mph 3.0 mph 76% 0.00 in
15:25 86.5 °F 73.3 °F 29.98 in WNW 12.0 mph 15.0 mph 65% 0.00 in
15:30 82.5 °F 73.0 °F 29.99 in WNW 19.0 mph 19.0 mph 73% 0.00 in
15:35 78.2 °F 73.0 °F 30.00 in WNW 13.0 mph 19.0 mph 84% 0.00 in
15:40 75.1 °F 72.0 °F 30.01 in West 11.0 mph 18.0 mph 90% 2.12 in
15:45 73.3 °F 70.8 °F 30.02 in WNW 10.0 mph 16.0 mph 92% 1.23 in
15:50 73.1 °F 70.6 °F 30.03 in SW 6.0 mph 12.0 mph 92% 0.74 in
15:55 72.9 °F 70.4 °F 30.02 in South 5.0 mph 10.0 mph 92% 0.61 in
16:00 72.7 °F 70.2 °F 30.01 in SE 2.0 mph 10.0 mph 92% 0.40 in
16:06 72.6 °F 70.2 °F 30.01 in SSE 2.0 mph 7.0 mph 92% 0.31 in
16:11 72.7 °F 70.2 °F 30.01 in SE 7.0 mph 7.0 mph 92% 0.17 in
16:16 72.8 °F 70.3 °F 30.01 in SSW 3.0 mph 7.0 mph 92% 0.13 in
16:21 72.7 °F 70.2 °F 30.02 in WNW 6.0 mph 6.0 mph 92% 0.07 in
16:26 72.4 °F 69.9 °F 30.01 in NW 1.0 mph 6.0 mph 92% 0.12 in
16:31 72.3 °F 69.8 °F 30.01 in WSW 1.0 mph 2.0 mph 92% 0.13 in
16:36 72.3 °F 69.8 °F 30.01 in South 2.0 mph 3.0 mph 92% 0.65 in
16:41 72.4 °F 69.9 °F 30.00 in SE 3.0 mph 4.0 mph 92% 0.33 in
16:46 72.6 °F 70.2 °F 30.00 in SW 2.0 mph 3.0 mph 92% 0.08 in
16:51 72.8 °F 70.3 °F 29.98 in SW 3.0 mph 3.0 mph 92% 0.05 in
16:56 73.1 °F 70.6 °F 29.97 in SW 4.0 mph 6.0 mph 92% 0.05 in
17:01 73.5 °F 71.0 °F 29.96 in SSW 1.0 mph 5.0 mph 92% 0.05 in
17:06 73.6 °F 71.1 °F 29.95 in West 3.0 mph 5.0 mph 92% 0.04 in
17:11 73.6 °F 71.1 °F 29.95 in SW 2.0 mph 4.0 mph 92% 0.00 in
17:16 73.7 °F 71.2 °F 29.95 in SSE 1.0 mph 2.0 mph 92% 0.00 in
17:21 73.7 °F 71.2 °F 29.96 in ESE 4.0 mph 5.0 mph 92% 0.00 in
17:27 73.8 °F 71.3 °F 29.96 in Calm   4.0 mph 92% 0.00 in
17:32 73.8 °F 71.3 °F 29.96 in SSW 2.0 mph 2.0 mph 92% 0.00 in
17:37 73.9 °F 71.4 °F 29.97 in SSE 3.0 mph 4.0 mph 92% 0.00 in
17:42 73.9 °F 71.4 °F 29.97 in SSW 2.0 mph 4.0 mph 92% 0.00 in
17:47 73.9 °F 71.4 °F 29.98 in SE 5.0 mph 5.0 mph 92% 0.00 in
17:53 74.0 °F 71.5 °F 29.98 in SE 5.0 mph 6.0 mph 92% 0.00 in
17:58 74.2 °F 71.7 °F 29.98 in ESE 3.0 mph 6.0 mph 92% 0.00 in
18:03 74.4 °F 71.9 °F 29.98 in SE 6.0 mph 7.0 mph 92% 0.00 in
18:08 74.6 °F 72.1 °F 29.99 in ESE 5.0 mph 8.0 mph 92% 0.00 in
18:13 74.5 °F 72.0 °F 29.99 in SE 7.0 mph 8.0 mph 92% 0.00 in
18:18 74.5 °F 72.0 °F 29.99 in SE 9.0 mph 10.0 mph 92% 0.00 in
18:23 74.5 °F 72.0 °F 29.99 in SE 7.0 mph 13.0 mph 92% 0.00 in
18:28 74.5 °F 72.0 °F 30.00 in ESE 8.0 mph 11.0 mph 92% 0.00 in
18:33 74.5 °F 72.0 °F 30.00 in SE 5.0 mph 11.0 mph 92% 0.00 in
18:38 74.5 °F 72.0 °F 29.99 in SE 5.0 mph 9.0 mph 92% 0.00 in
18:43 74.5 °F 72.0 °F 29.99 in East 7.0 mph 8.0 mph 92% 0.00 in
18:48 74.5 °F 72.0 °F 29.99 in SE 4.0 mph 7.0 mph 92% 0.00 in
18:54 74.5 °F 72.0 °F 29.99 in SE 4.0 mph 8.0 mph 92% 0.00 in
18:59 74.5 °F 72.0 °F 29.98 in SE 3.0 mph 6.0 mph 92% 0.00 in
19:04 74.6 °F 72.1 °F 29.98 in ESE 6.0 mph 7.0 mph 92% 0.00 in
19:09 74.6 °F 72.1 °F 29.98 in ESE 4.0 mph 7.0 mph 92% 0.00 in
19:14 74.6 °F 72.1 °F 29.98 in SSE 3.0 mph 5.0 mph 92% 0.00 in
19:19 74.5 °F 72.0 °F 29.98 in SE 3.0 mph 4.0 mph 92% 0.00 in
19:24 74.5 °F 72.0 °F 29.98 in SE 2.0 mph 4.0 mph 92% 0.00 in
19:29 74.5 °F 72.0 °F 29.98 in SE 2.0 mph 3.0 mph 92% 0.00 in
19:34 74.5 °F 72.0 °F 29.98 in SE 2.0 mph 4.0 mph 92% 0.00 in
19:39 74.5 °F 72.0 °F 29.98 in Calm   1.0 mph 92% 0.00 in
19:44 74.5 °F 72.0 °F 29.98 in SE 1.0 mph 3.0 mph 92% 0.00 in
19:49 74.5 °F 72.0 °F 29.98 in ESE 2.0 mph 3.0 mph 92% 0.00 in
19:55 74.4 °F 71.9 °F 29.98 in East 2.0 mph 3.0 mph 92% 0.00 in
20:00 74.4 °F 71.9 °F 29.97 in SE 2.0 mph 4.0 mph 92% 0.00 in
20:05 74.3 °F 71.8 °F 29.97 in ESE 2.0 mph 3.0 mph 92% 0.00 in
20:10 74.2 °F 71.7 °F 29.97 in ESE 2.0 mph 3.0 mph 92% 0.00 in
20:15 74.2 °F 71.7 °F 29.98 in ESE 1.0 mph 2.0 mph 92% 0.00 in
20:20 74.2 °F 71.7 °F 29.98 in Calm   2.0 mph 92% 0.00 in
20:25 74.2 °F 71.7 °F 29.98 in East 2.0 mph 2.0 mph 92% 0.00 in
20:30 74.1 °F 71.6 °F 29.98 in Calm   4.0 mph 92% 0.00 in
20:35 74.2 °F 71.7 °F 29.98 in East 2.0 mph 4.0 mph 92% 0.00 in
20:40 74.2 °F 71.7 °F 29.99 in East 2.0 mph 3.0 mph 92% 0.00 in
20:45 74.1 °F 71.6 °F 29.98 in ESE 3.0 mph 4.0 mph 92% 0.00 in
20:50 74.0 °F 71.5 °F 29.98 in ESE 3.0 mph 4.0 mph 92% 0.00 in
20:55 74.0 °F 71.5 °F 29.98 in ESE 4.0 mph 4.0 mph 92% 0.00 in
21:00 73.9 °F 71.4 °F 29.98 in ESE 4.0 mph 4.0 mph 92% 0.00 in
21:05 73.9 °F 71.4 °F 29.98 in ESE 5.0 mph 6.0 mph 92% 0.00 in
21:10 73.9 °F 71.4 °F 29.98 in ESE 4.0 mph 5.0 mph 92% 0.00 in
21:15 73.9 °F 71.4 °F 29.99 in ESE 2.0 mph 5.0 mph 92% 0.00 in
21:20 73.9 °F 71.4 °F 29.99 in ESE 2.0 mph 5.0 mph 92% 0.00 in
21:25 74.0 °F 71.5 °F 29.99 in ESE 3.0 mph 4.0 mph 92% 0.00 in
21:30 74.0 °F 71.5 °F 29.99 in SE 4.0 mph 5.0 mph 92% 0.00 in
21:35 74.0 °F 71.5 °F 30.00 in SE 2.0 mph 4.0 mph 92% 0.00 in
21:40 73.9 °F 71.4 °F 30.00 in SE 2.0 mph 5.0 mph 92% 0.00 in
21:45 73.9 °F 71.4 °F 30.00 in SE 3.0 mph 5.0 mph 92% 0.00 in
21:50 73.9 °F 71.4 °F 30.00 in SE 2.0 mph 4.0 mph 92% 0.00 in
21:55 73.9 °F 71.4 °F 30.01 in South 1.0 mph 2.0 mph 92% 0.00 in
22:00 73.9 °F 71.4 °F 30.01 in SE 3.0 mph 3.0 mph 92% 0.00 in
22:06 73.9 °F 71.4 °F 30.01 in SE 3.0 mph 5.0 mph 92% 0.00 in
22:11 73.9 °F 71.4 °F 30.01 in SE 3.0 mph 4.0 mph 92% 0.00 in
22:16 73.8 °F 71.3 °F 30.01 in SE 5.0 mph 5.0 mph 92% 0.00 in
22:21 73.8 °F 71.3 °F 30.01 in ESE 3.0 mph 5.0 mph 92% 0.00 in
22:26 73.8 °F 71.3 °F 30.01 in ESE 4.0 mph 6.0 mph 92% 0.00 in
22:31 73.8 °F 71.3 °F 30.01 in SE 6.0 mph 6.0 mph 92% 0.00 in
22:36 73.8 °F 71.3 °F 30.01 in SE 3.0 mph 5.0 mph 92% 0.00 in
22:41 73.8 °F 71.3 °F 30.01 in SE 3.0 mph 4.0 mph 92% 0.00 in
22:46 73.8 °F 71.3 °F 30.01 in ESE 3.0 mph 4.0 mph 92% 0.00 in
22:52 73.8 °F 71.3 °F 30.01 in SE 2.0 mph 4.0 mph 92% 0.00 in
22:57 73.8 °F 71.3 °F 30.02 in SE 3.0 mph 4.0 mph 92% 0.00 in
23:02 73.8 °F 71.3 °F 30.02 in ESE 3.0 mph 4.0 mph 92% 0.00 in
23:07 73.8 °F 71.3 °F 30.02 in SE 5.0 mph 7.0 mph 92% 0.00 in
23:12 73.9 °F 71.4 °F 30.02 in SE 4.0 mph 6.0 mph 92% 0.00 in
23:17 73.9 °F 71.4 °F 30.02 in SSE 4.0 mph 7.0 mph 92% 0.00 in
23:22 74.0 °F 71.5 °F 30.02 in SE 5.0 mph 6.0 mph 92% 0.00 in
23:27 74.0 °F 71.5 °F 30.01 in SE 4.0 mph 8.0 mph 92% 0.00 in
23:32 74.1 °F 71.6 °F 30.01 in SE 6.0 mph 7.0 mph 92% 0.00 in
23:37 74.2 °F 71.7 °F 30.01 in SE 7.0 mph 9.0 mph 92% 0.00 in
23:42 74.4 °F 71.9 °F 30.01 in SE 6.0 mph 10.0 mph 92% 0.00 in
23:47 74.6 °F 72.1 °F 30.01 in SE 6.0 mph 8.0 mph 92% 0.00 in
23:52 74.8 °F 72.3 °F 30.01 in SE 5.0 mph 8.0 mph 92% 0.00 in
23:57 74.9 °F 72.4 °F 30.01 in SE 5.0 mph 7.0 mph 92% 0.00 in
Compliments of Weather Underground